createdAt,value
2022-09-11T00:02:43.898Z,0.60
2022-09-11T00:16:43.852Z,0.55
2022-09-11T00:30:43.932Z,0.40
2022-09-11T00:44:43.922Z,0.50
2022-09-11T00:58:43.926Z,0.40
2022-09-11T01:18:47.148Z,0.40
2022-09-11T01:32:47.601Z,0.40
2022-09-11T01:46:47.560Z,0.20
2022-09-11T02:00:47.625Z,0.20
2022-09-11T02:14:47.630Z,0.20
2022-09-11T02:28:47.743Z,0.10
2022-09-11T02:42:47.815Z,0.10
2022-09-11T02:56:47.791Z,0.20
2022-09-11T03:10:47.918Z,0.10
2022-09-11T03:24:47.885Z,0.20
2022-09-11T03:38:47.925Z,0.10
2022-09-11T03:52:47.939Z,0.10
2022-09-11T04:06:48.325Z,0.10
2022-09-11T04:20:48.196Z,0.20
2022-09-11T04:34:48.331Z,0.20
2022-09-11T04:49:48.427Z,0.10
2022-09-11T05:04:48.469Z,0.20
2022-09-11T05:19:48.500Z,0.20
2022-09-11T05:34:48.579Z,0.30
2022-09-11T05:49:48.606Z,0.20
2022-09-11T06:04:48.640Z,0.30
2022-09-11T06:19:48.626Z,0.40
2022-09-11T06:34:48.680Z,0.40
2022-09-11T06:49:48.699Z,0.40
2022-09-11T07:04:48.709Z,0.40
2022-09-11T07:19:48.753Z,0.40
2022-09-11T07:34:48.749Z,0.50
2022-09-11T07:49:48.792Z,0.60
2022-09-11T08:04:48.826Z,1.20
2022-09-11T08:19:48.873Z,1.60
2022-09-11T08:34:48.892Z,1.70
2022-09-11T08:49:48.969Z,1.60
2022-09-11T09:04:49.166Z,1.30
2022-09-11T09:19:49.242Z,1.00
2022-09-11T09:34:49.241Z,1.00
2022-09-11T09:49:49.241Z,1.00
2022-09-11T10:04:49.330Z,0.80
2022-09-11T10:19:51.055Z,0.70
2022-09-11T10:34:49.316Z,0.70
2022-09-11T10:49:49.338Z,0.70
2022-09-11T11:04:49.424Z,0.60
2022-09-11T11:20:49.385Z,0.50
2022-09-11T11:35:49.394Z,0.30
2022-09-11T11:50:49.469Z,0.40
2022-09-11T12:05:49.487Z,0.40
2022-09-11T12:20:49.533Z,0.40
2022-09-11T12:36:49.499Z,0.50
2022-09-11T12:51:49.556Z,0.30
2022-09-11T13:07:49.540Z,0.40
2022-09-11T13:23:49.631Z,0.40
2022-09-11T13:39:49.626Z,0.50
2022-09-11T13:54:49.589Z,0.50
2022-09-11T14:09:49.666Z,0.40
2022-09-11T14:24:49.664Z,0.40
2022-09-11T14:40:49.676Z,0.40
2022-09-11T14:56:49.796Z,0.70
2022-09-11T15:11:49.709Z,0.70
2022-09-11T15:26:49.691Z,0.60
2022-09-11T15:42:49.722Z,0.90
2022-09-11T15:57:49.737Z,1.20
2022-09-11T16:12:49.745Z,1.10
2022-09-11T16:27:49.762Z,1.10
2022-09-11T16:42:49.759Z,0.90
2022-09-11T16:57:49.734Z,0.70
2022-09-11T17:12:49.782Z,0.90
2022-09-11T17:27:49.774Z,0.80
2022-09-11T17:44:49.801Z,0.80
2022-09-11T17:59:49.787Z,0.80
2022-09-11T18:14:49.770Z,0.70
2022-09-11T18:28:49.819Z,0.80
2022-09-11T18:42:49.795Z,0.80
2022-09-11T18:56:49.892Z,0.90
2022-09-11T19:11:49.882Z,1.10
2022-09-11T19:25:49.915Z,3.20
2022-09-11T19:39:50.017Z,1.80
2022-09-11T19:53:49.990Z,1.30
2022-09-11T20:07:50.062Z,0.90
2022-09-11T20:21:50.012Z,0.80
2022-09-11T20:35:50.018Z,0.80
2022-09-11T20:49:50.047Z,1.00
2022-09-11T21:03:50.095Z,0.80
2022-09-11T21:17:50.119Z,0.70
2022-09-11T21:31:50.203Z,0.70
2022-09-11T21:45:50.174Z,0.80
2022-09-11T21:59:50.201Z,0.60
2022-09-11T22:13:50.250Z,1.00
2022-09-11T22:27:50.234Z,0.80
2022-09-11T22:41:50.239Z,0.80
2022-09-11T22:55:50.269Z,0.70
2022-09-11T23:09:50.283Z,0.60
2022-09-11T23:23:53.785Z,0.50
2022-09-11T23:37:50.334Z,0.60
2022-09-11T23:51:50.319Z,0.60
